Time;durP1;ratioP1;P1;durP2;ratioP2;P2;SDS_P1;SDS_P2;PMS_P1;PMS_P2;Temp;Humidity;BMP_temperature;BMP_pressure;BME280_temperature;BME280_humidity;BME280_pressure;Samples;Min_cycle;Max_cycle;Signal;HPM_P1;HPM_P2
2023/09/26 00:00:41;;;;;;;10.05;4.22;;;14.50;99.90;;;;;;4984102;28;20149;-75
2023/09/26 00:03:27;;;;;;;7.68;3.60;;;14.50;99.90;;;;;;4990913;28;20073;-77
2023/09/26 00:06:24;;;;;;;6.93;3.92;;;14.50;99.90;;;;;;5250510;23;20057;-75
2023/09/26 00:09:10;;;;;;;8.65;3.85;;;14.50;99.90;;;;;;5051123;28;20045;-75
2023/09/26 00:11:56;;;;;;;8.57;4.57;;;14.40;99.90;;;;;;5018840;28;20068;-76
2023/09/26 00:14:44;;;;;;;6.65;4.00;;;14.40;99.90;;;;;;5033783;28;20507;-75
2023/09/26 00:17:30;;;;;;;8.98;4.32;;;14.40;99.90;;;;;;5051141;28;20056;-76
2023/09/26 00:20:23;;;;;;;11.38;5.07;;;14.40;99.90;;;;;;5035990;28;20056;-75
2023/09/26 00:23:09;;;;;;;9.25;4.65;;;14.30;99.90;;;;;;5032889;28;20048;-76
2023/09/26 00:25:55;;;;;;;7.22;4.00;;;14.30;99.90;;;;;;5049832;28;20057;-76
2023/09/26 00:28:41;;;;;;;10.80;4.25;;;14.30;99.90;;;;;;5036745;28;20389;-74
2023/09/26 00:31:27;;;;;;;8.70;5.15;;;14.30;99.90;;;;;;5051081;28;20140;-76
2023/09/26 00:34:13;;;;;;;10.20;4.53;;;14.30;99.90;;;;;;5050839;28;20131;-75
2023/09/26 00:36:59;;;;;;;8.40;4.47;;;14.20;99.90;;;;;;5050822;28;20415;-75
2023/09/26 00:39:45;;;;;;;13.63;6.63;;;14.20;99.90;;;;;;5016018;28;20075;-74
2023/09/26 00:42:31;;;;;;;9.60;5.43;;;14.30;99.90;;;;;;5031077;28;20046;-74
2023/09/26 00:45:17;;;;;;;8.90;6.47;;;14.30;99.90;;;;;;5034311;28;20109;-75
2023/09/26 00:48:05;;;;;;;10.30;5.40;;;14.30;99.90;;;;;;5004932;28;20050;-76
2023/09/26 00:50:55;;;;;;;12.93;5.75;;;14.30;99.90;;;;;;5004208;28;20115;-75
2023/09/26 00:53:42;;;;;;;7.75;5.28;;;14.30;99.90;;;;;;5033877;28;20110;-75
2023/09/26 00:56:28;;;;;;;8.95;5.95;;;14.30;99.90;;;;;;5034858;28;20053;-76
2023/09/26 00:59:15;;;;;;;9.35;6.07;;;14.30;99.90;;;;;;5033942;28;20045;-75
2023/09/26 01:02:01;;;;;;;10.25;6.00;;;14.30;99.90;;;;;;5033407;28;20076;-75
2023/09/26 01:04:48;;;;;;;9.77;6.57;;;14.30;99.90;;;;;;5034585;28;20053;-76
2023/09/26 01:07:35;;;;;;;9.25;6.30;;;14.30;99.90;;;;;;5018493;28;20572;-75
2023/09/26 01:10:21;;;;;;;9.52;6.57;;;14.30;99.90;;;;;;5017037;28;20053;-75
2023/09/26 01:13:08;;;;;;;9.05;6.88;;;14.30;99.90;;;;;;5034161;28;20052;-75
2023/09/26 01:15:54;;;;;;;8.93;5.53;;;14.30;99.90;;;;;;5034209;28;20424;-74
2023/09/26 01:18:41;;;;;;;8.85;6.18;;;14.30;99.90;;;;;;5016762;28;20202;-75
2023/09/26 01:21:27;;;;;;;12.40;6.43;;;14.30;99.90;;;;;;5016948;28;20496;-76
2023/09/26 01:24:15;;;;;;;8.98;6.10;;;14.20;99.90;;;;;;5033777;28;20042;-75
2023/09/26 01:27:01;;;;;;;9.20;6.50;;;14.30;99.90;;;;;;5033559;28;20049;-74
2023/09/26 01:29:47;;;;;;;9.35;6.10;;;14.30;99.90;;;;;;5034253;28;20080;-75
2023/09/26 01:32:33;;;;;;;8.00;5.43;;;14.20;99.90;;;;;;5034596;28;20148;-76
2023/09/26 01:35:19;;;;;;;10.50;5.65;;;14.20;99.90;;;;;;5033466;28;20060;-76
2023/09/26 01:38:05;;;;;;;9.70;5.95;;;14.20;99.90;;;;;;5015697;28;20053;-76
2023/09/26 01:40:52;;;;;;;10.32;6.68;;;14.10;99.90;;;;;;5032026;28;20087;-75
2023/09/26 01:43:38;;;;;;;10.02;6.30;;;14.10;99.90;;;;;;5053422;28;20045;-76
2023/09/26 01:46:25;;;;;;;10.00;6.13;;;14.10;99.90;;;;;;5053831;28;20136;-76
2023/09/26 01:49:11;;;;;;;9.80;6.82;;;14.10;99.90;;;;;;5022301;28;20109;-76
2023/09/26 01:51:57;;;;;;;10.95;6.95;;;14.00;99.90;;;;;;5053142;28;20071;-75
2023/09/26 01:54:43;;;;;;;11.07;6.63;;;14.00;99.90;;;;;;5053211;28;20048;-76
2023/09/26 01:57:29;;;;;;;11.98;7.30;;;14.00;99.90;;;;;;5057385;28;20049;-76
2023/09/26 02:00:17;;;;;;;12.00;6.97;;;14.00;99.90;;;;;;5054474;28;20092;-76
2023/09/26 02:03:03;;;;;;;11.52;8.05;;;14.00;99.90;;;;;;5036338;28;20053;-76
2023/09/26 02:05:51;;;;;;;12.13;7.10;;;14.00;99.90;;;;;;5058195;28;20052;-76
2023/09/26 02:08:37;;;;;;;11.82;7.00;;;13.90;99.90;;;;;;5055277;28;20064;-76
2023/09/26 02:11:23;;;;;;;13.20;7.50;;;13.90;99.90;;;;;;5073441;28;20110;-76
2023/09/26 02:14:09;;;;;;;10.65;6.35;;;13.80;99.90;;;;;;5072414;28;20048;-77
2023/09/26 02:16:55;;;;;;;11.02;6.95;;;13.80;99.90;;;;;;5073006;28;20127;-77
2023/09/26 02:19:41;;;;;;;10.63;6.22;;;13.80;99.90;;;;;;5073333;28;20052;-77
2023/09/26 02:22:27;;;;;;;11.35;6.50;;;13.80;99.90;;;;;;5073109;28;20193;-77
2023/09/26 02:25:15;;;;;;;15.18;8.25;;;13.80;99.90;;;;;;5073201;28;20044;-77
2023/09/26 02:28:01;;;;;;;15.27;8.57;;;13.80;99.90;;;;;;5055093;28;20110;-78
2023/09/26 02:30:47;;;;;;;10.25;6.30;;;13.70;99.90;;;;;;5072461;28;20045;-78
2023/09/26 02:33:33;;;;;;;14.50;8.70;;;13.70;99.90;;;;;;5072574;28;20053;-77
2023/09/26 02:36:19;;;;;;;11.70;8.38;;;13.70;99.90;;;;;;5073113;28;20044;-77
2023/09/26 02:39:05;;;;;;;14.30;8.60;;;13.60;99.90;;;;;;5072028;28;20062;-77
2023/09/26 02:41:51;;;;;;;12.40;9.57;;;13.60;99.90;;;;;;5054269;28;20049;-77
2023/09/26 02:44:37;;;;;;;12.75;9.25;;;13.60;99.90;;;;;;5054373;28;20056;-75
2023/09/26 02:47:23;;;;;;;14.98;9.85;;;13.60;99.90;;;;;;5072274;28;20490;-75
2023/09/26 02:50:10;;;;;;;13.02;8.05;;;13.60;99.90;;;;;;5072889;28;20458;-76
2023/09/26 02:52:57;;;;;;;11.77;7.32;;;13.60;99.90;;;;;;5054554;28;20057;-76
2023/09/26 02:55:43;;;;;;;10.45;6.93;;;13.60;99.90;;;;;;5071537;28;20101;-76
2023/09/26 02:58:29;;;;;;;13.88;10.18;;;13.60;99.90;;;;;;5072634;28;20048;-76
2023/09/26 03:01:20;;;;;;;14.90;10.25;;;13.60;99.90;;;;;;5055807;28;20569;-76
2023/09/26 03:04:06;;;;;;;16.85;11.23;;;13.60;99.90;;;;;;5072910;28;20050;-76
2023/09/26 03:06:52;;;;;;;16.27;10.20;;;13.60;99.90;;;;;;5056949;28;20052;-77
2023/09/26 03:09:38;;;;;;;15.20;11.02;;;13.60;99.90;;;;;;5069651;28;20056;-76
2023/09/26 03:12:25;;;;;;;17.42;10.48;;;13.60;99.90;;;;;;5069988;28;20052;-76
2023/09/26 03:15:12;;;;;;;16.08;10.98;;;13.60;99.90;;;;;;5071643;28;20059;-76
2023/09/26 03:17:58;;;;;;;15.40;10.80;;;13.60;99.90;;;;;;5054278;28;20466;-77
2023/09/26 03:20:44;;;;;;;14.95;11.20;;;13.60;99.90;;;;;;5071783;28;20041;-77
2023/09/26 03:23:32;;;;;;;15.20;11.00;;;13.50;99.90;;;;;;5053431;28;20153;-77
2023/09/26 03:26:18;;;;;;;18.25;11.95;;;13.50;99.90;;;;;;5071205;28;20389;-77
2023/09/26 03:29:04;;;;;;;17.92;10.98;;;13.50;99.90;;;;;;5071366;28;20068;-76
2023/09/26 03:31:50;;;;;;;16.08;10.02;;;13.50;99.90;;;;;;5070398;28;20092;-77
2023/09/26 03:34:36;;;;;;;17.90;12.02;;;13.50;99.90;;;;;;5057102;28;20139;-77
2023/09/26 03:37:22;;;;;;;17.92;12.63;;;13.50;99.90;;;;;;5071380;28;20052;-77
2023/09/26 03:40:08;;;;;;;18.10;12.70;;;13.40;99.90;;;;;;5071692;28;20135;-77
2023/09/26 03:42:54;;;;;;;22.02;12.35;;;13.40;99.90;;;;;;5074995;28;20053;-77
2023/09/26 03:45:41;;;;;;;18.38;12.85;;;13.40;99.90;;;;;;5056286;28;20106;-77
2023/09/26 03:48:27;;;;;;;15.10;10.52;;;13.40;99.90;;;;;;5071019;28;20087;-76
2023/09/26 03:51:14;;;;;;;16.27;11.23;;;13.30;99.90;;;;;;5070345;28;20052;-74
2023/09/26 03:54:00;;;;;;;25.23;13.45;;;13.30;99.90;;;;;;5070671;28;20457;-75
2023/09/26 03:56:46;;;;;;;20.67;12.32;;;13.30;99.90;;;;;;5071385;28;20403;-75
2023/09/26 03:59:33;;;;;;;20.60;13.50;;;13.30;99.90;;;;;;5068711;28;20094;-76
2023/09/26 04:02:19;;;;;;;18.98;12.93;;;13.20;99.90;;;;;;5049442;28;20468;-76
2023/09/26 04:05:05;;;;;;;18.77;12.75;;;13.20;99.90;;;;;;5069841;28;20048;-77
2023/09/26 04:07:51;;;;;;;23.23;13.32;;;13.20;99.90;;;;;;5070340;28;20048;-76
2023/09/26 04:10:38;;;;;;;19.10;13.25;;;13.20;99.90;;;;;;5069710;28;20052;-75
2023/09/26 04:13:24;;;;;;;18.55;13.75;;;13.10;99.90;;;;;;5052720;28;20058;-76
2023/09/26 04:16:11;;;;;;;16.60;12.27;;;13.10;99.90;;;;;;5069236;28;20063;-76
2023/09/26 04:18:57;;;;;;;14.95;11.90;;;13.10;99.90;;;;;;5069704;28;20510;-76
2023/09/26 04:21:44;;;;;;;20.42;14.02;;;13.10;99.90;;;;;;5051324;28;20052;-75
2023/09/26 04:24:30;;;;;;;16.45;12.00;;;13.10;99.90;;;;;;5070517;28;20049;-75
2023/09/26 04:27:16;;;;;;;17.35;13.48;;;13.10;99.90;;;;;;5070489;28;20403;-75
2023/09/26 04:30:04;;;;;;;17.63;12.00;;;13.10;99.90;;;;;;5057880;28;20094;-76
2023/09/26 04:32:50;;;;;;;20.58;13.40;;;13.10;99.90;;;;;;5070010;28;20443;-76
2023/09/26 04:35:36;;;;;;;18.80;12.43;;;13.10;99.90;;;;;;5052573;28;20055;-76
2023/09/26 04:38:23;;;;;;;18.85;11.82;;;13.10;99.90;;;;;;5069234;28;20060;-76
2023/09/26 04:41:09;;;;;;;14.68;11.27;;;13.10;99.90;;;;;;5069835;28;20041;-77
2023/09/26 04:43:55;;;;;;;18.08;12.68;;;13.10;99.90;;;;;;5069918;28;20084;-76
2023/09/26 04:46:42;;;;;;;17.73;14.18;;;13.10;99.90;;;;;;5069819;28;20052;-75
2023/09/26 04:49:27;;;;;;;19.02;13.60;;;13.10;99.90;;;;;;5069384;28;20492;-76
2023/09/26 04:52:13;;;;;;;18.63;13.70;;;13.10;99.90;;;;;;5069668;28;20048;-76
2023/09/26 04:55:00;;;;;;;16.90;12.88;;;13.10;99.90;;;;;;5070847;28;20049;-76
2023/09/26 04:57:46;;;;;;;19.88;13.20;;;13.10;99.90;;;;;;5069729;28;20462;-76
2023/09/26 05:00:32;;;;;;;19.23;13.02;;;13.10;99.90;;;;;;5069922;28;20048;-77
2023/09/26 05:03:19;;;;;;;20.40;12.73;;;13.10;99.90;;;;;;5069323;28;20052;-76
2023/09/26 05:06:07;;;;;;;16.08;10.88;;;13.00;99.90;;;;;;5068982;28;20457;-76
2023/09/26 05:08:53;;;;;;;18.60;13.07;;;13.00;99.90;;;;;;5039540;28;20052;-76
2023/09/26 05:11:39;;;;;;;16.33;12.05;;;13.00;99.90;;;;;;5055979;28;20440;-76
2023/09/26 05:14:25;;;;;;;21.95;12.95;;;13.00;99.90;;;;;;5051122;28;20143;-76
2023/09/26 05:17:11;;;;;;;18.67;13.32;;;13.00;99.90;;;;;;5055744;28;20048;-76
2023/09/26 05:19:57;;;;;;;18.05;13.07;;;13.00;99.90;;;;;;5070264;28;20049;-75
2023/09/26 05:22:46;;;;;;;18.42;13.20;;;12.90;99.90;;;;;;5051142;28;20056;-76
2023/09/26 05:25:34;;;;;;;19.40;13.13;;;13.00;99.90;;;;;;5071183;28;20102;-75
2023/09/26 05:28:20;;;;;;;21.52;13.98;;;13.00;99.90;;;;;;5071032;28;20094;-76
2023/09/26 05:31:07;;;;;;;18.38;13.27;;;13.00;99.90;;;;;;5070510;28;20173;-76
2023/09/26 05:33:53;;;;;;;17.67;13.10;;;12.90;99.90;;;;;;5072268;28;20450;-75
2023/09/26 05:36:39;;;;;;;17.60;13.02;;;13.00;99.90;;;;;;5056006;28;20102;-76
2023/09/26 05:39:25;;;;;;;18.13;12.88;;;12.90;99.90;;;;;;5055434;28;20511;-76
2023/09/26 05:42:11;;;;;;;20.60;13.73;;;13.00;99.90;;;;;;5073849;28;20059;-75
2023/09/26 05:44:57;;;;;;;19.55;13.15;;;13.00;99.90;;;;;;5055442;28;20495;-75
2023/09/26 05:47:44;;;;;;;18.95;13.63;;;13.00;99.90;;;;;;5073058;28;20051;-75
2023/09/26 05:50:30;;;;;;;18.15;13.10;;;13.00;99.90;;;;;;5072985;28;20106;-74
2023/09/26 05:53:17;;;;;;;19.05;13.55;;;13.00;99.90;;;;;;5073991;28;20052;-76
2023/09/26 05:56:03;;;;;;;19.70;12.82;;;13.00;99.90;;;;;;5073167;28;20101;-76
2023/09/26 05:58:49;;;;;;;19.80;13.18;;;13.00;99.90;;;;;;5055282;28;20057;-76
2023/09/26 06:01:36;;;;;;;18.20;13.57;;;13.10;99.90;;;;;;5072408;28;20145;-76
2023/09/26 06:04:22;;;;;;;18.13;12.85;;;13.10;99.90;;;;;;5073811;28;20064;-76
2023/09/26 06:07:09;;;;;;;20.60;14.00;;;13.20;99.90;;;;;;5058264;28;20249;-77
2023/09/26 06:09:56;;;;;;;20.17;13.60;;;13.20;99.90;;;;;;5057887;28;20082;-74
2023/09/26 06:12:42;;;;;;;20.08;13.23;;;13.30;99.90;;;;;;5072644;28;20040;-75
2023/09/26 06:15:28;;;;;;;19.13;13.20;;;13.30;99.90;;;;;;5073556;28;20392;-75
2023/09/26 06:18:14;;;;;;;17.63;13.25;;;13.40;99.90;;;;;;5072198;28;20090;-75
2023/09/26 06:21:05;;;;;;;17.52;12.43;;;13.40;99.90;;;;;;5072055;28;20045;-75
2023/09/26 06:23:51;;;;;;;18.77;13.95;;;13.50;99.90;;;;;;5072392;28;20067;-72
2023/09/26 06:26:37;;;;;;;17.45;12.55;;;13.50;99.90;;;;;;5041764;28;20057;-74
2023/09/26 06:29:23;;;;;;;21.38;13.82;;;13.60;99.90;;;;;;5072787;28;20049;-73
2023/09/26 06:32:10;;;;;;;20.83;13.18;;;13.70;99.90;;;;;;5072786;28;20048;-73
2023/09/26 06:34:58;;;;;;;17.95;13.85;;;13.70;99.90;;;;;;5054614;28;20063;-72
2023/09/26 06:37:44;;;;;;;17.08;12.35;;;13.80;99.90;;;;;;5058316;28;20049;-73
2023/09/26 06:40:30;;;;;;;18.73;13.27;;;13.90;99.90;;;;;;5071991;28;20052;-73
2023/09/26 06:43:16;;;;;;;18.77;12.38;;;13.90;99.90;;;;;;5071867;28;20294;-74
2023/09/26 06:46:08;;;;;;;17.73;12.70;;;14.00;99.90;;;;;;5071023;28;20481;-73
2023/09/26 06:48:54;;;;;;;14.95;11.23;;;14.10;99.90;;;;;;5053651;28;20508;-72
2023/09/26 06:51:40;;;;;;;16.88;11.93;;;14.20;99.90;;;;;;5071913;28;20052;-74
2023/09/26 06:54:26;;;;;;;20.35;12.07;;;14.30;99.90;;;;;;5056796;28;20095;-75
2023/09/26 06:57:17;;;;;;;17.35;11.18;;;14.30;99.90;;;;;;5052532;28;20055;-75
2023/09/26 07:00:16;;;;;;;17.95;12.65;;;14.40;99.90;;;;;;5055660;28;20060;-73
2023/09/26 07:03:03;;;;;;;17.77;11.77;;;14.50;99.90;;;;;;5053728;28;20468;-73
2023/09/26 07:05:49;;;;;;;17.75;11.20;;;14.60;99.90;;;;;;5070545;28;20045;-76
2023/09/26 07:08:37;;;;;;;17.85;12.27;;;14.70;99.90;;;;;;5052451;28;20056;-77
2023/09/26 07:11:23;;;;;;;17.15;11.60;;;14.80;99.90;;;;;;5072289;28;20041;-76
2023/09/26 07:14:09;;;;;;;17.48;11.88;;;14.90;99.90;;;;;;5070909;28;20075;-75
2023/09/26 07:16:55;;;;;;;18.73;12.07;;;15.00;99.90;;;;;;5071297;28;20040;-73
2023/09/26 07:19:41;;;;;;;16.38;10.75;;;15.10;99.90;;;;;;5053829;28;20061;-72
2023/09/26 07:22:27;;;;;;;14.32;10.60;;;15.10;99.90;;;;;;5071729;28;20059;-71
2023/09/26 07:25:13;;;;;;;14.82;11.10;;;15.10;99.90;;;;;;5071060;28;20056;-73
2023/09/26 07:27:59;;;;;;;17.17;10.80;;;15.20;99.90;;;;;;5056468;28;20514;-76
2023/09/26 07:30:45;;;;;;;14.65;9.75;;;15.20;99.90;;;;;;5071920;28;20110;-73
2023/09/26 07:33:32;;;;;;;14.80;11.55;;;15.20;99.90;;;;;;5055002;28;20488;-73
2023/09/26 07:36:18;;;;;;;20.65;11.43;;;15.40;99.90;;;;;;5052679;28;20056;-73
2023/09/26 07:39:05;;;;;;;15.75;10.07;;;15.40;99.90;;;;;;5070993;28;20047;-72
2023/09/26 07:41:51;;;;;;;16.70;10.50;;;15.50;99.90;;;;;;5070612;28;20060;-80
2023/09/26 07:44:37;;;;;;;16.25;11.73;;;15.60;99.90;;;;;;5040868;28;20052;-76
2023/09/26 07:47:23;;;;;;;14.50;10.90;;;15.60;99.90;;;;;;5055462;28;20063;-73
2023/09/26 07:50:10;;;;;;;15.18;10.23;;;15.70;99.90;;;;;;5054028;28;20048;-74
2023/09/26 07:52:56;;;;;;;17.02;9.90;;;15.80;99.90;;;;;;5070674;28;20516;-72
2023/09/26 07:55:43;;;;;;;17.45;9.82;;;15.80;99.90;;;;;;5052010;28;20127;-74
2023/09/26 07:58:29;;;;;;;17.08;10.63;;;16.00;99.90;;;;;;5039931;28;20511;-73
2023/09/26 08:01:15;;;;;;;16.50;9.70;;;16.00;99.90;;;;;;5069902;28;20127;-73
2023/09/26 08:04:02;;;;;;;15.68;9.82;;;16.10;99.90;;;;;;5071046;28;20044;-72
2023/09/26 08:06:48;;;;;;;14.30;8.95;;;16.20;99.90;;;;;;5071479;28;20079;-74
2023/09/26 08:09:34;;;;;;;13.55;9.60;;;16.30;99.90;;;;;;5052939;28;20088;-73
2023/09/26 08:12:20;;;;;;;14.68;9.65;;;16.40;99.90;;;;;;5038113;28;20506;-72
2023/09/26 08:15:08;;;;;;;16.35;10.13;;;16.40;99.90;;;;;;5071162;28;20052;-71
2023/09/26 08:17:54;;;;;;;13.27;8.25;;;16.50;99.90;;;;;;5071127;28;20130;-73
2023/09/26 08:20:40;;;;;;;15.50;9.45;;;16.50;99.90;;;;;;5053602;28;20063;-74
2023/09/26 08:23:30;;;;;;;17.50;9.43;;;16.50;99.90;;;;;;5039153;28;20056;-74
2023/09/26 08:26:16;;;;;;;13.75;8.25;;;16.50;99.90;;;;;;5069402;28;20080;-73
2023/09/26 08:29:04;;;;;;;14.70;8.85;;;16.40;99.90;;;;;;5057162;28;20126;-73
2023/09/26 08:31:51;;;;;;;12.15;8.15;;;16.50;99.90;;;;;;5071672;28;20161;-73
2023/09/26 08:34:37;;;;;;;12.20;8.68;;;16.50;99.90;;;;;;5071419;28;20056;-75
2023/09/26 08:37:23;;;;;;;15.75;8.65;;;16.70;99.90;;;;;;5052738;28;20428;-73
2023/09/26 08:40:12;;;;;;;13.85;9.27;;;17.00;99.90;;;;;;5052912;28;20084;-72
2023/09/26 08:42:59;;;;;;;15.45;9.18;;;17.30;99.90;;;;;;5069147;28;20084;-72
2023/09/26 08:45:45;;;;;;;17.63;8.95;;;17.50;99.90;;;;;;5052840;28;20049;-71
2023/09/26 08:48:32;;;;;;;18.00;8.40;;;17.70;99.90;;;;;;5069697;28;20520;-73
2023/09/26 08:51:18;;;;;;;16.08;8.45;;;17.90;99.90;;;;;;5070635;28;20037;-76
2023/09/26 08:54:04;;;;;;;11.77;7.75;;;18.00;99.90;;;;;;5049536;28;20051;-76
2023/09/26 08:56:51;;;;;;;11.60;7.78;;;18.10;99.90;;;;;;5071356;28;20044;-75
2023/09/26 08:59:39;;;;;;;14.10;7.80;;;18.20;99.90;;;;;;5070890;28;20053;-75
2023/09/26 09:02:25;;;;;;;14.05;7.88;;;18.40;99.90;;;;;;5054383;28;20053;-76
2023/09/26 09:05:11;;;;;;;12.15;7.63;;;18.60;99.90;;;;;;5052591;28;20150;-74
2023/09/26 09:07:57;;;;;;;11.65;7.72;;;18.70;99.90;;;;;;5071748;28;20060;-74
2023/09/26 09:10:51;;;;;;;10.65;6.75;;;18.80;99.90;;;;;;5055551;28;20055;-72
2023/09/26 09:13:38;;;;;;;11.07;6.30;;;18.80;99.90;;;;;;5073771;28;20186;-71
2023/09/26 09:16:24;;;;;;;11.18;6.00;;;18.90;99.90;;;;;;5072550;28;20141;-71
2023/09/26 09:19:10;;;;;;;11.55;6.70;;;18.90;99.90;;;;;;5071607;28;20052;-72
2023/09/26 09:22:17;;;;;;;12.77;6.28;;;19.00;99.90;;;;;;5072563;28;20159;-71
2023/09/26 09:25:04;;;;;;;10.77;6.13;;;19.00;99.90;;;;;;5069736;28;20040;-76
2023/09/26 09:27:50;;;;;;;11.20;6.75;;;19.00;99.90;;;;;;5054329;28;20491;-76
2023/09/26 09:30:48;;;;;;;11.57;6.00;;;19.00;99.90;;;;;;5073098;28;20048;-74
2023/09/26 09:33:36;;;;;;;13.35;7.20;;;19.10;99.90;;;;;;5072550;28;20048;-78
2023/09/26 09:36:23;;;;;;;14.45;6.20;;;19.00;99.90;;;;;;5055005;28;20044;-76
2023/09/26 09:39:09;;;;;;;12.00;6.15;;;19.00;99.90;;;;;;5073054;28;20055;-79
2023/09/26 09:42:03;;;;;;;11.48;6.65;;;18.90;99.90;;;;;;5075249;28;20048;-82
2023/09/26 09:44:49;;;;;;;16.10;7.32;;;18.90;99.90;;;;;;5076372;28;20496;-81
2023/09/26 09:47:39;;;;;;;13.30;6.65;;;19.10;99.90;;;;;;5060212;28;20048;-85
2023/09/26 09:50:27;;;;;;;16.98;6.75;;;19.10;99.90;;;;;;5078263;28;20055;-82
2023/09/26 09:53:18;;;;;;;14.93;6.97;;;19.20;99.90;;;;;;5075676;28;20140;-88
2023/09/26 09:56:08;;;;;;;12.13;6.70;;;19.30;99.90;;;;;;5076427;28;20105;-91
2023/09/26 09:59:05;;;;;;;13.45;7.00;;;19.30;99.90;;;;;;5059749;28;20049;-87
2023/09/26 10:01:54;;;;;;;13.73;6.57;;;19.40;99.90;;;;;;5048681;28;20055;-83
2023/09/26 10:04:44;;;;;;;15.50;8.02;;;19.50;99.90;;;;;;5056450;28;20060;-84
2023/09/26 14:22:58;;;;;;;8.43;4.80;;;28.20;86.50;;;;;;4918230;29;19927;-87
2023/09/26 14:25:51;;;;;;;6.18;4.15;;;29.00;83.70;;;;;;4875508;29;20055;-85
2023/09/26 14:28:41;;;;;;;9.10;4.15;;;29.00;81.70;;;;;;4919055;29;20560;-87
2023/09/26 14:31:27;;;;;;;9.63;5.25;;;29.50;81.80;;;;;;4918078;29;20567;-83
2023/09/26 14:34:13;;;;;;;7.05;3.90;;;29.80;80.20;;;;;;4890323;29;20060;-84
2023/09/26 14:36:59;;;;;;;7.63;3.83;;;29.60;79.30;;;;;;4917597;29;20052;-85
2023/09/26 14:39:45;;;;;;;10.80;4.70;;;29.40;79.50;;;;;;4905179;29;20055;-86
2023/09/26 14:42:31;;;;;;;11.50;5.35;;;29.10;80.30;;;;;;4898435;29;20074;-91
2023/09/26 14:45:17;;;;;;;10.32;4.20;;;28.30;80.90;;;;;;4906343;29;20052;-85
2023/09/26 14:48:04;;;;;;;8.52;3.85;;;27.20;82.50;;;;;;4903482;29;20489;-91
2023/09/26 14:50:50;;;;;;;8.73;3.83;;;26.50;85.00;;;;;;4919590;29;20062;-91
2023/09/26 14:53:36;;;;;;;10.52;4.53;;;25.90;86.70;;;;;;4917290;29;20052;-87
2023/09/26 14:56:24;;;;;;;11.27;4.45;;;25.40;88.20;;;;;;4915763;29;20503;-92
2023/09/26 14:59:10;;;;;;;7.45;4.18;;;25.10;89.30;;;;;;4885961;29;20060;-91
2023/09/26 15:01:56;;;;;;;7.47;4.75;;;25.00;90.20;;;;;;4919087;29;20044;-89
2023/09/26 15:04:42;;;;;;;11.57;4.40;;;24.90;90.90;;;;;;4911934;29;20052;-93
2023/09/26 15:07:29;;;;;;;9.90;4.13;;;24.80;91.30;;;;;;4914710;29;20055;-85
2023/09/26 15:10:15;;;;;;;9.65;4.20;;;24.50;91.80;;;;;;4898765;29;20408;-84
2023/09/26 15:13:01;;;;;;;9.15;5.10;;;24.30;92.40;;;;;;4916828;29;20048;-87
2023/09/26 15:15:47;;;;;;;9.65;5.13;;;24.20;93.00;;;;;;4916908;29;20060;-81
2023/09/26 15:18:33;;;;;;;12.07;5.13;;;24.20;93.30;;;;;;4919606;28;20083;-77
2023/09/26 15:21:19;;;;;;;10.60;5.47;;;24.10;93.00;;;;;;4916104;29;20055;-79
2023/09/26 15:24:05;;;;;;;12.15;4.57;;;23.80;93.40;;;;;;4898662;29;20124;-76
2023/09/26 15:26:52;;;;;;;8.07;5.13;;;23.50;93.70;;;;;;4917437;29;20051;-77
2023/09/26 15:29:38;;;;;;;10.05;5.07;;;23.20;94.30;;;;;;4917057;29;20052;-81
2023/09/26 15:32:24;;;;;;;9.90;5.07;;;23.00;95.20;;;;;;4902076;29;20051;-80
2023/09/26 15:35:10;;;;;;;10.23;4.55;;;22.80;95.70;;;;;;4902932;29;20060;-79
2023/09/26 15:37:56;;;;;;;10.73;5.25;;;22.60;96.00;;;;;;4916063;29;20119;-81
2023/09/26 15:40:42;;;;;;;8.98;5.03;;;22.50;96.40;;;;;;4915932;29;20544;-76
2023/09/26 15:43:28;;;;;;;11.25;5.05;;;22.30;96.90;;;;;;4914655;29;20496;-76
2023/09/26 15:46:22;;;;;;;13.40;5.00;;;22.10;97.50;;;;;;4917112;28;20056;-77
2023/09/26 15:49:09;;;;;;;8.50;5.00;;;22.00;98.10;;;;;;4901203;29;20103;-79
2023/09/26 15:51:55;;;;;;;11.52;5.55;;;21.90;98.40;;;;;;4899060;29;20511;-77
2023/09/26 15:54:41;;;;;;;9.68;5.20;;;21.80;98.70;;;;;;4886592;29;20178;-81
2023/09/26 15:57:27;;;;;;;11.00;4.82;;;21.70;99.00;;;;;;4917182;29;20052;-78
2023/09/26 16:00:14;;;;;;;9.02;4.78;;;21.60;99.50;;;;;;4917360;28;20364;-80
2023/09/26 16:03:00;;;;;;;7.60;4.78;;;21.50;99.90;;;;;;4916470;29;20055;-79
2023/09/26 16:05:47;;;;;;;8.70;5.00;;;21.50;99.90;;;;;;4903993;29;20048;-78
2023/09/26 16:08:33;;;;;;;8.68;5.07;;;21.40;99.90;;;;;;4914739;29;20052;-77
2023/09/26 16:11:19;;;;;;;10.30;4.53;;;21.30;99.90;;;;;;4916446;28;20064;-79
2023/09/26 16:14:06;;;;;;;12.43;5.43;;;21.30;99.90;;;;;;4916761;28;20164;-77
2023/09/26 16:16:52;;;;;;;10.20;4.88;;;21.20;99.90;;;;;;4886590;29;20047;-81
2023/09/26 16:19:38;;;;;;;7.55;4.82;;;21.10;99.90;;;;;;4915700;28;20048;-77
2023/09/26 16:22:24;;;;;;;10.63;4.68;;;21.00;99.90;;;;;;4913910;29;20501;-80
2023/09/26 16:25:10;;;;;;;11.75;5.10;;;21.00;99.90;;;;;;4900194;29;20531;-78
2023/09/26 16:27:56;;;;;;;10.63;5.35;;;20.90;99.90;;;;;;4915768;29;20139;-79
2023/09/26 16:30:49;;;;;;;13.43;5.20;;;20.80;99.90;;;;;;4914540;29;20052;-82
2023/09/26 16:33:35;;;;;;;13.85;4.60;;;20.70;99.90;;;;;;4914517;29;20080;-80
2023/09/26 16:36:21;;;;;;;11.88;5.75;;;20.50;99.90;;;;;;4899677;29;20060;-82
2023/09/26 16:39:07;;;;;;;15.88;5.03;;;20.40;99.90;;;;;;4914124;29;20052;-81
2023/09/26 16:41:53;;;;;;;9.73;5.25;;;20.30;99.90;;;;;;4915745;29;20056;-81
2023/09/26 16:44:39;;;;;;;9.85;5.90;;;20.20;99.90;;;;;;4917236;29;20519;-81
2023/09/26 16:47:25;;;;;;;10.13;5.75;;;20.20;99.90;;;;;;4914630;29;20067;-80
2023/09/26 16:50:11;;;;;;;12.52;5.70;;;20.00;99.90;;;;;;4915324;29;20044;-82
2023/09/26 16:52:57;;;;;;;11.65;5.93;;;19.90;99.90;;;;;;4915350;29;20084;-83
2023/09/26 16:55:43;;;;;;;9.32;5.68;;;19.80;99.90;;;;;;4915053;29;20595;-85
2023/09/26 16:58:29;;;;;;;12.27;6.07;;;19.80;99.90;;;;;;4915717;29;20450;-82
2023/09/26 17:01:16;;;;;;;11.00;5.82;;;19.60;99.90;;;;;;4914887;29;20485;-85
2023/09/26 17:04:02;;;;;;;9.98;5.70;;;19.60;99.90;;;;;;4915088;28;20134;-80
2023/09/26 17:06:49;;;;;;;10.73;6.65;;;19.50;99.90;;;;;;4914161;29;20056;-82
2023/09/26 17:09:35;;;;;;;13.43;6.30;;;19.40;99.90;;;;;;4915447;29;20142;-81
2023/09/26 17:12:21;;;;;;;9.85;6.25;;;19.40;99.90;;;;;;4911487;29;20049;-80
2023/09/26 17:15:07;;;;;;;9.13;5.78;;;19.20;99.90;;;;;;4901985;29;20501;-77
2023/09/26 17:17:54;;;;;;;10.95;6.05;;;19.20;99.90;;;;;;4900063;29;20135;-82
2023/09/26 17:20:40;;;;;;;11.85;6.53;;;19.10;99.90;;;;;;4903711;29;20056;-83
2023/09/26 17:23:26;;;;;;;10.65;6.32;;;19.00;99.90;;;;;;4873421;29;20059;-79
2023/09/26 17:26:12;;;;;;;14.15;6.63;;;18.90;99.90;;;;;;4894030;29;20402;-83
2023/09/26 17:28:59;;;;;;;12.38;6.43;;;18.90;99.90;;;;;;4884657;29;20048;-88
2023/09/26 17:31:45;;;;;;;11.15;6.25;;;18.80;99.90;;;;;;4910991;28;20060;-82
2023/09/26 17:34:31;;;;;;;11.88;7.05;;;18.80;99.90;;;;;;4907539;29;20044;-82
2023/09/26 17:37:17;;;;;;;11.90;5.55;;;18.70;99.90;;;;;;4896814;29;20043;-80
2023/09/26 17:40:03;;;;;;;9.35;5.05;;;18.80;99.90;;;;;;4917881;28;20059;-78
2023/09/26 17:42:49;;;;;;;9.73;6.10;;;18.70;99.90;;;;;;4915809;29;20056;-85
2023/09/26 17:45:36;;;;;;;10.30;6.40;;;18.80;99.90;;;;;;4910568;29;20050;-83
2023/09/26 17:48:23;;;;;;;11.00;6.30;;;18.70;99.90;;;;;;4908617;29;20134;-82
2023/09/26 17:51:10;;;;;;;13.35;6.40;;;18.70;99.90;;;;;;4910574;29;20058;-83
2023/09/26 17:53:56;;;;;;;9.63;5.78;;;18.60;99.90;;;;;;4909802;29;20413;-80
2023/09/26 17:56:42;;;;;;;8.82;5.90;;;18.70;99.90;;;;;;4902680;29;20052;-81
2023/09/26 17:59:28;;;;;;;10.13;5.88;;;18.60;99.90;;;;;;4901330;29;20080;-81
2023/09/26 18:02:14;;;;;;;12.10;6.60;;;18.60;99.90;;;;;;4914820;29;20090;-79
2023/09/26 18:05:00;;;;;;;9.68;5.60;;;18.60;99.90;;;;;;4917198;29;20067;-81
2023/09/26 18:07:49;;;;;;;9.00;5.47;;;18.60;99.90;;;;;;4916249;29;20134;-79
2023/09/26 18:10:35;;;;;;;11.27;5.55;;;18.50;99.90;;;;;;4915754;29;20063;-77
2023/09/26 18:13:22;;;;;;;11.55;5.82;;;18.50;99.90;;;;;;4916940;29;20595;-76
2023/09/26 18:16:08;;;;;;;12.40;6.47;;;18.50;99.90;;;;;;4887048;29;20056;-78
2023/09/26 18:18:54;;;;;;;9.52;5.55;;;18.40;99.90;;;;;;4917621;29;20072;-76
2023/09/26 18:21:40;;;;;;;11.80;5.65;;;18.40;99.90;;;;;;4902058;29;20068;-76
2023/09/26 18:24:26;;;;;;;10.90;6.00;;;18.30;99.90;;;;;;4915450;29;20044;-77
2023/09/26 18:27:13;;;;;;;10.95;5.97;;;18.20;99.90;;;;;;4915854;29;20051;-80
2023/09/26 18:29:59;;;;;;;10.70;6.13;;;18.10;99.90;;;;;;4907835;29;20052;-80